sensor_id;sensor_type;location;lat;lon;timestamp;pressure;altitude;pressure_sealevel;temperature;humidity
61814;BME280;57055;-35.296;149.168;2023-05-07T00:00:35;95084.82;;;7.13;62.21
61814;BME280;57055;-35.296;149.168;2023-05-07T00:03:04;95088.31;;;6.90;60.30
61814;BME280;57055;-35.296;149.168;2023-05-07T00:05:33;95091.15;;;7.19;61.91
61814;BME280;57055;-35.296;149.168;2023-05-07T00:08:02;95088.51;;;6.98;62.06
61814;BME280;57055;-35.296;149.168;2023-05-07T00:10:30;95085.67;;;7.03;62.96
61814;BME280;57055;-35.296;149.168;2023-05-07T00:12:59;95086.26;;;7.14;62.61
61814;BME280;57055;-35.296;149.168;2023-05-07T00:15:28;95085.32;;;7.22;62.71
61814;BME280;57055;-35.296;149.168;2023-05-07T00:17:57;95084.55;;;6.90;61.83
61814;BME280;57055;-35.296;149.168;2023-05-07T00:20:26;95081.55;;;7.17;60.60
61814;BME280;57055;-35.296;149.168;2023-05-07T00:22:55;95078.04;;;7.29;61.33
61814;BME280;57055;-35.296;149.168;2023-05-07T00:25:24;95077.89;;;7.34;61.66
61814;BME280;57055;-35.296;149.168;2023-05-07T00:27:53;95076.03;;;7.22;61.32
61814;BME280;57055;-35.296;149.168;2023-05-07T00:30:22;95072.93;;;7.39;61.42
61814;BME280;57055;-35.296;149.168;2023-05-07T00:32:51;95071.04;;;7.37;60.40
61814;BME280;57055;-35.296;149.168;2023-05-07T00:35:20;95069.54;;;7.44;61.13
61814;BME280;57055;-35.296;149.168;2023-05-07T00:37:49;95069.22;;;7.40;61.53
61814;BME280;57055;-35.296;149.168;2023-05-07T00:40:18;95067.09;;;7.29;62.00
61814;BME280;57055;-35.296;149.168;2023-05-07T00:42:46;95063.63;;;7.22;60.99
61814;BME280;57055;-35.296;149.168;2023-05-07T00:45:15;95055.57;;;7.31;61.49
61814;BME280;57055;-35.296;149.168;2023-05-07T00:47:44;95046.52;;;7.28;60.79
61814;BME280;57055;-35.296;149.168;2023-05-07T00:50:13;95043.92;;;7.48;58.84
61814;BME280;57055;-35.296;149.168;2023-05-07T00:52:43;95047.50;;;7.42;57.87
61814;BME280;57055;-35.296;149.168;2023-05-07T00:55:12;95046.50;;;7.23;58.96
61814;BME280;57055;-35.296;149.168;2023-05-07T00:57:41;95043.42;;;7.52;60.28
61814;BME280;57055;-35.296;149.168;2023-05-07T01:00:11;95035.84;;;7.64;60.61
61814;BME280;57055;-35.296;149.168;2023-05-07T01:02:41;95033.55;;;7.57;59.63
61814;BME280;57055;-35.296;149.168;2023-05-07T01:05:12;95035.18;;;7.78;58.93
61814;BME280;57055;-35.296;149.168;2023-05-07T01:07:43;95037.67;;;7.86;58.26
61814;BME280;57055;-35.296;149.168;2023-05-07T01:10:12;95030.02;;;7.96;58.42
61814;BME280;57055;-35.296;149.168;2023-05-07T01:12:43;95027.92;;;8.13;58.45
61814;BME280;57055;-35.296;149.168;2023-05-07T01:15:12;95019.71;;;8.02;57.87
61814;BME280;57055;-35.296;149.168;2023-05-07T01:17:42;95015.55;;;8.05;58.14
61814;BME280;57055;-35.296;149.168;2023-05-07T01:20:12;95016.78;;;8.15;58.53
61814;BME280;57055;-35.296;149.168;2023-05-07T01:22:41;95013.87;;;8.02;57.75
61814;BME280;57055;-35.296;149.168;2023-05-07T01:25:11;95011.40;;;8.01;58.67
61814;BME280;57055;-35.296;149.168;2023-05-07T01:27:40;95019.13;;;7.86;57.76
61814;BME280;57055;-35.296;149.168;2023-05-07T01:30:09;95015.61;;;7.78;57.84
61814;BME280;57055;-35.296;149.168;2023-05-07T01:32:43;95015.53;;;7.57;59.27
61814;BME280;57055;-35.296;149.168;2023-05-07T01:35:13;95007.03;;;7.67;59.53
61814;BME280;57055;-35.296;149.168;2023-05-07T01:37:44;95001.57;;;7.81;59.93
61814;BME280;57055;-35.296;149.168;2023-05-07T01:40:14;94994.88;;;7.75;58.97
61814;BME280;57055;-35.296;149.168;2023-05-07T01:42:44;94990.12;;;7.55;59.84
61814;BME280;57055;-35.296;149.168;2023-05-07T01:45:14;94983.07;;;7.49;59.93
61814;BME280;57055;-35.296;149.168;2023-05-07T01:47:44;94977.47;;;7.12;60.04
61814;BME280;57055;-35.296;149.168;2023-05-07T01:50:13;94973.73;;;7.19;61.75
61814;BME280;57055;-35.296;149.168;2023-05-07T01:52:45;94973.18;;;6.93;62.60
61814;BME280;57055;-35.296;149.168;2023-05-07T01:55:15;94969.74;;;7.12;62.07
61814;BME280;57055;-35.296;149.168;2023-05-07T01:57:44;94964.93;;;7.25;61.71
61814;BME280;57055;-35.296;149.168;2023-05-07T02:00:13;94963.18;;;7.37;62.56
61814;BME280;57055;-35.296;149.168;2023-05-07T02:02:42;94962.39;;;7.23;62.93
61814;BME280;57055;-35.296;149.168;2023-05-07T02:05:11;94958.17;;;7.46;61.75
61814;BME280;57055;-35.296;149.168;2023-05-07T02:07:40;94957.11;;;7.48;61.45
61814;BME280;57055;-35.296;149.168;2023-05-07T02:10:09;94955.02;;;7.59;61.99
61814;BME280;57055;-35.296;149.168;2023-05-07T02:12:38;94949.13;;;7.39;60.51
61814;BME280;57055;-35.296;149.168;2023-05-07T02:15:08;94947.33;;;7.40;61.15
61814;BME280;57055;-35.296;149.168;2023-05-07T02:17:38;94944.80;;;7.49;61.61
61814;BME280;57055;-35.296;149.168;2023-05-07T02:20:09;94943.77;;;7.23;61.17
61814;BME280;57055;-35.296;149.168;2023-05-07T02:22:37;94939.44;;;7.62;60.20
61814;BME280;57055;-35.296;149.168;2023-05-07T02:25:07;94944.72;;;7.39;61.13
61814;BME280;57055;-35.296;149.168;2023-05-07T02:27:36;94939.14;;;7.44;62.09
61814;BME280;57055;-35.296;149.168;2023-05-07T02:30:05;94938.00;;;7.67;60.96
61814;BME280;57055;-35.296;149.168;2023-05-07T02:32:35;94938.66;;;7.58;62.11
61814;BME280;57055;-35.296;149.168;2023-05-07T02:35:04;94943.70;;;7.36;62.76
61814;BME280;57055;-35.296;149.168;2023-05-07T02:37:33;94947.43;;;7.61;62.24
61814;BME280;57055;-35.296;149.168;2023-05-07T02:40:02;94948.51;;;7.52;62.72
61814;BME280;57055;-35.296;149.168;2023-05-07T02:42:32;94949.18;;;7.45;62.45
61814;BME280;57055;-35.296;149.168;2023-05-07T02:45:01;94949.14;;;7.20;63.04
61814;BME280;57055;-35.296;149.168;2023-05-07T02:47:29;94955.89;;;7.36;62.40
61814;BME280;57055;-35.296;149.168;2023-05-07T02:49:58;94958.30;;;7.13;62.94
61814;BME280;57055;-35.296;149.168;2023-05-07T02:52:27;94958.12;;;7.12;62.26
61814;BME280;57055;-35.296;149.168;2023-05-07T02:54:56;94954.15;;;7.01;62.87
61814;BME280;57055;-35.296;149.168;2023-05-07T02:57:24;94951.34;;;7.07;64.71
61814;BME280;57055;-35.296;149.168;2023-05-07T02:59:53;94948.15;;;7.03;63.95
61814;BME280;57055;-35.296;149.168;2023-05-07T03:02:22;94951.21;;;6.97;63.56
61814;BME280;57055;-35.296;149.168;2023-05-07T03:04:51;94951.23;;;7.04;64.47
61814;BME280;57055;-35.296;149.168;2023-05-07T03:07:20;94958.76;;;7.00;63.45
61814;BME280;57055;-35.296;149.168;2023-05-07T03:09:48;94966.73;;;6.86;63.39
61814;BME280;57055;-35.296;149.168;2023-05-07T03:12:17;94965.03;;;6.96;63.24
61814;BME280;57055;-35.296;149.168;2023-05-07T03:14:46;94966.16;;;6.77;63.66
61814;BME280;57055;-35.296;149.168;2023-05-07T03:17:15;94962.53;;;6.90;62.60
61814;BME280;57055;-35.296;149.168;2023-05-07T03:19:44;94962.76;;;6.67;63.72
61814;BME280;57055;-35.296;149.168;2023-05-07T03:22:12;94960.73;;;6.70;63.60
61814;BME280;57055;-35.296;149.168;2023-05-07T03:24:41;94960.08;;;6.58;62.67
61814;BME280;57055;-35.296;149.168;2023-05-07T03:27:10;94963.09;;;6.63;62.85
61814;BME280;57055;-35.296;149.168;2023-05-07T03:29:39;94963.80;;;6.43;63.08
61814;BME280;57055;-35.296;149.168;2023-05-07T03:32:07;94968.81;;;6.49;63.37
61814;BME280;57055;-35.296;149.168;2023-05-07T03:34:38;94974.25;;;6.38;63.82
61814;BME280;57055;-35.296;149.168;2023-05-07T03:37:08;94971.91;;;6.53;63.30
61814;BME280;57055;-35.296;149.168;2023-05-07T03:39:36;94970.57;;;6.44;63.34
61814;BME280;57055;-35.296;149.168;2023-05-07T03:42:05;94970.23;;;6.23;64.03
61814;BME280;57055;-35.296;149.168;2023-05-07T03:44:34;94972.50;;;6.29;64.41
61814;BME280;57055;-35.296;149.168;2023-05-07T03:47:03;94970.43;;;6.66;64.30
61814;BME280;57055;-35.296;149.168;2023-05-07T03:49:32;94969.46;;;5.97;64.16
61814;BME280;57055;-35.296;149.168;2023-05-07T03:52:00;94963.03;;;6.25;64.73
61814;BME280;57055;-35.296;149.168;2023-05-07T03:54:29;94960.55;;;6.49;65.06
61814;BME280;57055;-35.296;149.168;2023-05-07T03:56:58;94959.52;;;5.99;64.32
61814;BME280;57055;-35.296;149.168;2023-05-07T03:59:27;94953.66;;;6.19;64.30
61814;BME280;57055;-35.296;149.168;2023-05-07T04:01:55;94958.48;;;6.13;64.25
61814;BME280;57055;-35.296;149.168;2023-05-07T04:04:24;94964.88;;;6.37;64.76
61814;BME280;57055;-35.296;149.168;2023-05-07T04:06:53;94970.96;;;6.35;63.66
61814;BME280;57055;-35.296;149.168;2023-05-07T04:09:22;94972.16;;;6.28;63.67
61814;BME280;57055;-35.296;149.168;2023-05-07T04:11:51;94966.51;;;5.98;63.74
61814;BME280;57055;-35.296;149.168;2023-05-07T04:14:20;94964.05;;;6.24;65.04
61814;BME280;57055;-35.296;149.168;2023-05-07T04:16:48;94951.02;;;6.17;64.54
61814;BME280;57055;-35.296;149.168;2023-05-07T04:19:17;94932.57;;;5.69;62.44
61814;BME280;57055;-35.296;149.168;2023-05-07T04:21:46;94937.09;;;5.55;63.23
61814;BME280;57055;-35.296;149.168;2023-05-07T04:24:15;94945.55;;;5.46;62.58
61814;BME280;57055;-35.296;149.168;2023-05-07T04:26:44;94955.40;;;5.63;63.76
61814;BME280;57055;-35.296;149.168;2023-05-07T04:29:12;94962.19;;;5.72;63.29
61814;BME280;57055;-35.296;149.168;2023-05-07T04:31:41;94971.75;;;5.50;63.83
61814;BME280;57055;-35.296;149.168;2023-05-07T04:34:10;94976.78;;;5.90;63.75
61814;BME280;57055;-35.296;149.168;2023-05-07T04:36:41;94975.53;;;5.94;63.76
61814;BME280;57055;-35.296;149.168;2023-05-07T04:39:10;94980.01;;;5.78;63.83
61814;BME280;57055;-35.296;149.168;2023-05-07T04:41:39;94980.65;;;5.66;64.82
61814;BME280;57055;-35.296;149.168;2023-05-07T04:44:08;94982.06;;;5.58;65.16
61814;BME280;57055;-35.296;149.168;2023-05-07T04:46:37;94986.70;;;5.65;65.00
61814;BME280;57055;-35.296;149.168;2023-05-07T04:49:05;94985.47;;;5.72;64.79
61814;BME280;57055;-35.296;149.168;2023-05-07T04:51:34;94980.94;;;5.69;65.06
61814;BME280;57055;-35.296;149.168;2023-05-07T04:54:03;94984.51;;;5.67;62.98
61814;BME280;57055;-35.296;149.168;2023-05-07T04:56:32;94985.86;;;5.64;62.47
61814;BME280;57055;-35.296;149.168;2023-05-07T04:59:01;94985.99;;;5.91;62.88
61814;BME280;57055;-35.296;149.168;2023-05-07T05:01:29;94986.87;;;5.60;63.10
61814;BME280;57055;-35.296;149.168;2023-05-07T05:03:58;94990.37;;;5.45;64.27
61814;BME280;57055;-35.296;149.168;2023-05-07T05:06:27;94994.60;;;5.53;63.51
61814;BME280;57055;-35.296;149.168;2023-05-07T05:08:56;95001.09;;;5.47;63.63
61814;BME280;57055;-35.296;149.168;2023-05-07T05:11:25;95004.93;;;5.49;63.80
61814;BME280;57055;-35.296;149.168;2023-05-07T05:13:53;95004.23;;;5.66;63.75
61814;BME280;57055;-35.296;149.168;2023-05-07T05:16:22;94996.81;;;5.54;63.25
61814;BME280;57055;-35.296;149.168;2023-05-07T05:18:51;94992.49;;;5.52;63.63
61814;BME280;57055;-35.296;149.168;2023-05-07T05:21:20;94988.65;;;5.48;62.96
61814;BME280;57055;-35.296;149.168;2023-05-07T05:23:49;94985.88;;;5.81;63.60
61814;BME280;57055;-35.296;149.168;2023-05-07T05:26:18;94978.66;;;5.33;63.84
61814;BME280;57055;-35.296;149.168;2023-05-07T05:28:46;94970.12;;;5.18;63.73
61814;BME280;57055;-35.296;149.168;2023-05-07T05:31:15;94976.41;;;5.45;63.29
61814;BME280;57055;-35.296;149.168;2023-05-07T05:33:44;94968.72;;;5.22;63.69
61814;BME280;57055;-35.296;149.168;2023-05-07T05:36:13;94961.53;;;5.24;63.79
61814;BME280;57055;-35.296;149.168;2023-05-07T05:38:43;94956.16;;;5.41;63.40
61814;BME280;57055;-35.296;149.168;2023-05-07T05:41:12;94951.46;;;5.73;63.10
61814;BME280;57055;-35.296;149.168;2023-05-07T05:43:41;94944.74;;;5.20;63.33
61814;BME280;57055;-35.296;149.168;2023-05-07T05:46:10;94940.89;;;5.61;63.45
61814;BME280;57055;-35.296;149.168;2023-05-07T05:48:39;94949.05;;;5.34;63.61
61814;BME280;57055;-35.296;149.168;2023-05-07T05:51:08;94946.18;;;4.98;63.67
61814;BME280;57055;-35.296;149.168;2023-05-07T05:53:36;94941.03;;;5.13;63.79
61814;BME280;57055;-35.296;149.168;2023-05-07T05:56:06;94951.32;;;5.20;63.73
61814;BME280;57055;-35.296;149.168;2023-05-07T05:58:35;94960.62;;;5.15;63.84
61814;BME280;57055;-35.296;149.168;2023-05-07T06:01:04;94960.13;;;5.06;63.73
61814;BME280;57055;-35.296;149.168;2023-05-07T06:03:33;94951.64;;;5.19;64.51
61814;BME280;57055;-35.296;149.168;2023-05-07T06:06:02;94948.09;;;5.03;64.37
61814;BME280;57055;-35.296;149.168;2023-05-07T06:08:31;94948.27;;;5.55;64.54
61814;BME280;57055;-35.296;149.168;2023-05-07T06:11:00;94942.14;;;5.08;64.76
61814;BME280;57055;-35.296;149.168;2023-05-07T06:13:29;94942.95;;;5.22;64.31
61814;BME280;57055;-35.296;149.168;2023-05-07T06:15:58;94943.27;;;5.47;64.50
61814;BME280;57055;-35.296;149.168;2023-05-07T06:18:26;94946.42;;;5.22;63.76
61814;BME280;57055;-35.296;149.168;2023-05-07T06:20:55;94942.57;;;5.07;64.51
61814;BME280;57055;-35.296;149.168;2023-05-07T06:23:25;94945.50;;;5.06;65.44
61814;BME280;57055;-35.296;149.168;2023-05-07T06:25:55;94955.13;;;5.46;65.30
61814;BME280;57055;-35.296;149.168;2023-05-07T06:28:24;94959.03;;;4.97;65.70
61814;BME280;57055;-35.296;149.168;2023-05-07T06:30:52;94958.65;;;5.36;65.75
61814;BME280;57055;-35.296;149.168;2023-05-07T06:33:21;94954.97;;;4.92;65.52
61814;BME280;57055;-35.296;149.168;2023-05-07T06:35:50;94956.80;;;5.25;66.02
61814;BME280;57055;-35.296;149.168;2023-05-07T06:38:19;94955.06;;;5.21;65.92
61814;BME280;57055;-35.296;149.168;2023-05-07T06:40:50;94957.31;;;5.47;66.17
61814;BME280;57055;-35.296;149.168;2023-05-07T06:43:19;94956.20;;;5.47;66.10
61814;BME280;57055;-35.296;149.168;2023-05-07T06:45:48;94957.08;;;5.07;66.04
61814;BME280;57055;-35.296;149.168;2023-05-07T06:48:17;94960.98;;;5.39;66.00
61814;BME280;57055;-35.296;149.168;2023-05-07T06:50:46;94962.62;;;5.23;66.38
61814;BME280;57055;-35.296;149.168;2023-05-07T06:53:14;94962.41;;;5.20;66.34
61814;BME280;57055;-35.296;149.168;2023-05-07T06:55:43;94969.23;;;5.53;66.16
61814;BME280;57055;-35.296;149.168;2023-05-07T06:58:12;94971.59;;;5.54;66.67
61814;BME280;57055;-35.296;149.168;2023-05-07T07:00:42;94969.96;;;5.07;65.91
61814;BME280;57055;-35.296;149.168;2023-05-07T07:03:11;94972.85;;;5.31;66.30
61814;BME280;57055;-35.296;149.168;2023-05-07T07:05:42;94976.11;;;5.18;66.44
61814;BME280;57055;-35.296;149.168;2023-05-07T07:08:11;94981.28;;;5.07;66.12
61814;BME280;57055;-35.296;149.168;2023-05-07T07:10:40;94985.36;;;5.33;66.58
61814;BME280;57055;-35.296;149.168;2023-05-07T07:13:09;94983.09;;;5.36;66.51
61814;BME280;57055;-35.296;149.168;2023-05-07T07:15:37;94987.69;;;5.23;66.21
61814;BME280;57055;-35.296;149.168;2023-05-07T07:18:06;94987.97;;;5.08;66.69
61814;BME280;57055;-35.296;149.168;2023-05-07T07:20:35;94985.40;;;5.08;66.98
61814;BME280;57055;-35.296;149.168;2023-05-07T07:23:04;94987.79;;;5.40;66.80
61814;BME280;57055;-35.296;149.168;2023-05-07T07:25:33;94993.72;;;5.13;65.91
61814;BME280;57055;-35.296;149.168;2023-05-07T07:28:02;94995.09;;;5.36;65.84
61814;BME280;57055;-35.296;149.168;2023-05-07T07:30:31;94995.07;;;5.17;65.79
61814;BME280;57055;-35.296;149.168;2023-05-07T07:32:59;94989.46;;;5.22;65.95
61814;BME280;57055;-35.296;149.168;2023-05-07T07:35:28;94998.43;;;5.04;66.89
61814;BME280;57055;-35.296;149.168;2023-05-07T07:37:57;94992.12;;;5.06;67.52
61814;BME280;57055;-35.296;149.168;2023-05-07T07:40:26;95002.49;;;4.98;67.48
61814;BME280;57055;-35.296;149.168;2023-05-07T07:42:56;95000.47;;;5.09;67.59
61814;BME280;57055;-35.296;149.168;2023-05-07T07:45:24;95009.56;;;5.05;68.06
61814;BME280;57055;-35.296;149.168;2023-05-07T07:47:53;95012.27;;;5.13;67.49
61814;BME280;57055;-35.296;149.168;2023-05-07T07:50:22;95008.55;;;5.57;67.60
61814;BME280;57055;-35.296;149.168;2023-05-07T07:52:51;95025.92;;;5.22;67.02
61814;BME280;57055;-35.296;149.168;2023-05-07T07:55:20;95025.19;;;5.42;66.92
61814;BME280;57055;-35.296;149.168;2023-05-07T07:57:49;95023.23;;;5.10;67.18
61814;BME280;57055;-35.296;149.168;2023-05-07T08:00:19;95025.19;;;4.90;66.77
61814;BME280;57055;-35.296;149.168;2023-05-07T08:02:48;95019.90;;;5.35;66.75
61814;BME280;57055;-35.296;149.168;2023-05-07T08:05:17;95027.14;;;5.17;66.35
61814;BME280;57055;-35.296;149.168;2023-05-07T08:07:46;95031.04;;;5.01;66.96
61814;BME280;57055;-35.296;149.168;2023-05-07T08:10:16;95036.06;;;5.36;66.88
61814;BME280;57055;-35.296;149.168;2023-05-07T08:12:44;95036.12;;;5.05;66.83
61814;BME280;57055;-35.296;149.168;2023-05-07T08:15:14;95039.94;;;5.23;67.01
61814;BME280;57055;-35.296;149.168;2023-05-07T08:17:43;95041.00;;;4.85;67.40
61814;BME280;57055;-35.296;149.168;2023-05-07T08:20:13;95045.58;;;4.82;67.40
61814;BME280;57055;-35.296;149.168;2023-05-07T08:22:42;95041.36;;;5.27;68.01
61814;BME280;57055;-35.296;149.168;2023-05-07T08:25:11;95046.60;;;5.28;68.28
61814;BME280;57055;-35.296;149.168;2023-05-07T08:27:40;95049.02;;;4.96;68.24
61814;BME280;57055;-35.296;149.168;2023-05-07T08:30:10;95052.40;;;4.99;67.42
61814;BME280;57055;-35.296;149.168;2023-05-07T08:32:39;95055.77;;;5.37;67.79
61814;BME280;57055;-35.296;149.168;2023-05-07T08:35:09;95063.74;;;5.26;67.25
61814;BME280;57055;-35.296;149.168;2023-05-07T08:37:37;95066.00;;;5.24;67.78
61814;BME280;57055;-35.296;149.168;2023-05-07T08:40:07;95069.74;;;4.81;67.82
61814;BME280;57055;-35.296;149.168;2023-05-07T08:42:37;95072.65;;;5.18;68.37
61814;BME280;57055;-35.296;149.168;2023-05-07T08:45:09;95089.44;;;4.87;67.53
61814;BME280;57055;-35.296;149.168;2023-05-07T08:47:43;95090.67;;;5.40;67.14
61814;BME280;57055;-35.296;149.168;2023-05-07T08:50:12;95089.87;;;5.11;67.45
61814;BME280;57055;-35.296;149.168;2023-05-07T08:52:42;95099.26;;;5.19;66.83
61814;BME280;57055;-35.296;149.168;2023-05-07T08:55:11;95100.14;;;5.34;66.85
61814;BME280;57055;-35.296;149.168;2023-05-07T08:57:41;95087.19;;;5.00;67.68
61814;BME280;57055;-35.296;149.168;2023-05-07T09:00:11;95078.51;;;5.14;67.88
61814;BME280;57055;-35.296;149.168;2023-05-07T09:02:40;95077.22;;;5.16;67.76
61814;BME280;57055;-35.296;149.168;2023-05-07T09:05:09;95079.83;;;5.15;68.18
61814;BME280;57055;-35.296;149.168;2023-05-07T09:07:38;95082.92;;;4.65;67.74
61814;BME280;57055;-35.296;149.168;2023-05-07T09:10:08;95085.36;;;5.22;67.84
61814;BME280;57055;-35.296;149.168;2023-05-07T09:12:37;95089.36;;;5.01;67.71
61814;BME280;57055;-35.296;149.168;2023-05-07T09:15:07;95095.91;;;4.96;67.75
61814;BME280;57055;-35.296;149.168;2023-05-07T09:17:37;95088.94;;;5.01;67.76
61814;BME280;57055;-35.296;149.168;2023-05-07T09:20:07;95094.89;;;4.80;67.55
61814;BME280;57055;-35.296;149.168;2023-05-07T09:22:37;95098.89;;;5.04;67.49
61814;BME280;57055;-35.296;149.168;2023-05-07T09:25:07;95106.55;;;4.75;67.37
61814;BME280;57055;-35.296;149.168;2023-05-07T09:27:36;95106.55;;;4.81;67.33
61814;BME280;57055;-35.296;149.168;2023-05-07T09:30:06;95107.85;;;5.00;67.95
61814;BME280;57055;-35.296;149.168;2023-05-07T09:32:36;95105.26;;;4.43;67.70
61814;BME280;57055;-35.296;149.168;2023-05-07T09:35:06;95104.87;;;4.87;68.09
61814;BME280;57055;-35.296;149.168;2023-05-07T09:37:43;95100.40;;;4.94;68.37
61814;BME280;57055;-35.296;149.168;2023-05-07T09:40:21;95081.62;;;5.12;68.61
61814;BME280;57055;-35.296;149.168;2023-05-07T09:42:50;95079.87;;;4.95;67.54
61814;BME280;57055;-35.296;149.168;2023-05-07T09:45:23;95086.94;;;5.19;66.81
61814;BME280;57055;-35.296;149.168;2023-05-07T09:47:56;95076.61;;;5.24;66.83
61814;BME280;57055;-35.296;149.168;2023-05-07T09:50:27;95084.23;;;4.89;66.78
61814;BME280;57055;-35.296;149.168;2023-05-07T09:52:57;95084.57;;;5.22;66.57
61814;BME280;57055;-35.296;149.168;2023-05-07T09:55:26;95099.50;;;4.62;65.97
61814;BME280;57055;-35.296;149.168;2023-05-07T09:57:56;95103.83;;;4.87;65.43
61814;BME280;57055;-35.296;149.168;2023-05-07T10:00:26;95110.17;;;4.90;66.21
61814;BME280;57055;-35.296;149.168;2023-05-07T10:02:58;95113.11;;;4.83;66.93
61814;BME280;57055;-35.296;149.168;2023-05-07T10:05:28;95097.22;;;4.66;67.76
61814;BME280;57055;-35.296;149.168;2023-05-07T10:07:59;95095.36;;;4.88;67.71
61814;BME280;57055;-35.296;149.168;2023-05-07T10:10:32;95105.26;;;5.00;67.22
61814;BME280;57055;-35.296;149.168;2023-05-07T10:13:03;95097.51;;;5.03;66.79
61814;BME280;57055;-35.296;149.168;2023-05-07T10:15:32;95096.08;;;4.41;67.45
61814;BME280;57055;-35.296;149.168;2023-05-07T10:18:02;95088.01;;;4.94;66.50
61814;BME280;57055;-35.296;149.168;2023-05-07T10:20:32;95098.46;;;4.64;67.08
61814;BME280;57055;-35.296;149.168;2023-05-07T10:23:05;95102.42;;;4.86;66.96
61814;BME280;57055;-35.296;149.168;2023-05-07T10:25:35;95105.08;;;4.63;66.78
61814;BME280;57055;-35.296;149.168;2023-05-07T10:28:06;95118.44;;;4.67;66.62
61814;BME280;57055;-35.296;149.168;2023-05-07T10:30:46;95115.83;;;4.58;67.13
61814;BME280;57055;-35.296;149.168;2023-05-07T10:33:22;95113.89;;;4.82;67.27
61814;BME280;57055;-35.296;149.168;2023-05-07T10:35:58;95120.06;;;4.78;66.68
61814;BME280;57055;-35.296;149.168;2023-05-07T10:38:28;95111.56;;;4.64;66.72
61814;BME280;57055;-35.296;149.168;2023-05-07T10:40:58;95107.67;;;4.56;66.89
61814;BME280;57055;-35.296;149.168;2023-05-07T10:43:40;95113.99;;;4.69;66.84
61814;BME280;57055;-35.296;149.168;2023-05-07T10:46:16;95116.58;;;4.67;66.56
61814;BME280;57055;-35.296;149.168;2023-05-07T10:49:18;95109.01;;;4.91;66.16
61814;BME280;57055;-35.296;149.168;2023-05-07T10:52:12;95117.12;;;4.93;66.07
61814;BME280;57055;-35.296;149.168;2023-05-07T10:54:41;95118.90;;;4.96;65.87
61814;BME280;57055;-35.296;149.168;2023-05-07T10:57:34;95141.53;;;4.96;63.64
61814;BME280;57055;-35.296;149.168;2023-05-07T11:00:04;95131.86;;;4.77;65.02
61814;BME280;57055;-35.296;149.168;2023-05-07T11:03:09;95131.18;;;4.65;65.75
61814;BME280;57055;-35.296;149.168;2023-05-07T11:05:38;95128.91;;;4.49;65.79
61814;BME280;57055;-35.296;149.168;2023-05-07T11:08:08;95130.63;;;4.47;66.00
61814;BME280;57055;-35.296;149.168;2023-05-07T11:10:54;95126.54;;;4.25;66.64
61814;BME280;57055;-35.296;149.168;2023-05-07T11:13:43;95126.63;;;4.46;67.15
61814;BME280;57055;-35.296;149.168;2023-05-07T11:16:20;95127.06;;;4.59;66.76
61814;BME280;57055;-35.296;149.168;2023-05-07T11:18:50;95129.53;;;4.37;66.29
61814;BME280;57055;-35.296;149.168;2023-05-07T11:21:37;95125.77;;;4.66;66.42
61814;BME280;57055;-35.296;149.168;2023-05-07T11:24:07;95123.25;;;4.55;65.40
61814;BME280;57055;-35.296;149.168;2023-05-07T11:26:45;95123.90;;;4.50;65.66
61814;BME280;57055;-35.296;149.168;2023-05-07T11:29:16;95121.03;;;4.51;66.36
61814;BME280;57055;-35.296;149.168;2023-05-07T11:31:49;95127.72;;;4.50;66.33
61814;BME280;57055;-35.296;149.168;2023-05-07T11:34:22;95132.71;;;4.43;65.52
61814;BME280;57055;-35.296;149.168;2023-05-07T11:36:52;95137.88;;;4.46;65.01
61814;BME280;57055;-35.296;149.168;2023-05-07T11:39:27;95139.97;;;4.40;65.56
61814;BME280;57055;-35.296;149.168;2023-05-07T11:41:55;95144.93;;;4.54;65.70
61814;BME280;57055;-35.296;149.168;2023-05-07T11:44:24;95144.36;;;4.37;66.22
61814;BME280;57055;-35.296;149.168;2023-05-07T11:46:54;95145.13;;;4.48;65.95
61814;BME280;57055;-35.296;149.168;2023-05-07T11:49:25;95141.50;;;4.32;66.01
61814;BME280;57055;-35.296;149.168;2023-05-07T11:51:55;95139.38;;;4.25;65.74
61814;BME280;57055;-35.296;149.168;2023-05-07T11:54:25;95144.97;;;4.18;66.18
61814;BME280;57055;-35.296;149.168;2023-05-07T11:56:57;95148.62;;;4.19;66.44
61814;BME280;57055;-35.296;149.168;2023-05-07T11:59:25;95156.32;;;4.29;66.30
61814;BME280;57055;-35.296;149.168;2023-05-07T12:01:57;95150.03;;;4.21;66.06
61814;BME280;57055;-35.296;149.168;2023-05-07T12:04:28;95146.52;;;4.49;66.90
61814;BME280;57055;-35.296;149.168;2023-05-07T12:06:58;95145.70;;;4.16;66.54
61814;BME280;57055;-35.296;149.168;2023-05-07T12:09:27;95147.74;;;4.42;66.83
61814;BME280;57055;-35.296;149.168;2023-05-07T12:11:56;95148.88;;;4.22;66.91
61814;BME280;57055;-35.296;149.168;2023-05-07T12:14:28;95140.49;;;4.09;67.02
61814;BME280;57055;-35.296;149.168;2023-05-07T12:16:58;95150.65;;;4.49;66.67
61814;BME280;57055;-35.296;149.168;2023-05-07T12:19:27;95152.64;;;4.35;65.43
61814;BME280;57055;-35.296;149.168;2023-05-07T12:21:57;95152.36;;;4.55;65.12
61814;BME280;57055;-35.296;149.168;2023-05-07T12:24:26;95149.01;;;4.43;66.47
61814;BME280;57055;-35.296;149.168;2023-05-07T12:26:55;95148.20;;;4.11;66.71
61814;BME280;57055;-35.296;149.168;2023-05-07T12:29:24;95157.73;;;4.34;66.39
61814;BME280;57055;-35.296;149.168;2023-05-07T12:31:54;95141.19;;;3.99;66.16
61814;BME280;57055;-35.296;149.168;2023-05-07T12:34:23;95148.28;;;3.94;66.01
61814;BME280;57055;-35.296;149.168;2023-05-07T12:36:52;95147.02;;;4.26;66.57
61814;BME280;57055;-35.296;149.168;2023-05-07T12:39:21;95144.74;;;4.20;66.43
61814;BME280;57055;-35.296;149.168;2023-05-07T12:41:58;95144.95;;;4.01;66.88
61814;BME280;57055;-35.296;149.168;2023-05-07T12:44:32;95143.89;;;4.01;65.94
61814;BME280;57055;-35.296;149.168;2023-05-07T12:47:03;95134.28;;;4.07;66.62
61814;BME280;57055;-35.296;149.168;2023-05-07T12:49:34;95130.96;;;4.46;66.79
61814;BME280;57055;-35.296;149.168;2023-05-07T12:52:03;95138.32;;;4.06;66.32
61814;BME280;57055;-35.296;149.168;2023-05-07T12:54:33;95134.50;;;4.01;65.63